^^
WestSenecaWeather Station Historical Data
 
Daily Summary for April 22, 2019 Units:  English    Metric   Both
Daily Weekly Monthly Yearly Custom
  Current: High: Low: Average:
Temperature: 54.1 °F 54.1 °F 38.8 °F 43.7 °F
Dew Point: 45.6 °F 46.4 °F 37.6 °F 41.8 °F
Humidity: 73% 97% 73% 93%
Wind Speed: 2.3mph 3.5mph 0.0mph 0.6mph
Wind Gust: 0.9mph 3.7mph - -
WindWest - - SSW
Pressure: 30.26 in 30.26 in 30.19 in -
Precipitation: 0.00 in      
Historical Graphs
 
 
Tabular Data for April 22, 2019
Time Temperature Dew Point Pressure Wind Wind Speed Wind Gust Humidity Rainfall Rate (Hourly) solar
00:04 41.6 °F 40.3 °F 30.20 in Calm     95% 0.00 in WeatherDisplay:10.37 W/m2
00:09 41.4 °F 40.1 °F 30.20 in Calm     95% 0.00 in WeatherDisplay:10.37 W/m2
00:14 41.3 °F 40.0 °F 30.20 in Calm     95% 0.00 in WeatherDisplay:10.37 W/m2
00:19 41.1 °F 39.8 °F 30.19 in NNE 1.2 mph   95% 0.00 in WeatherDisplay:10.37 W/m2
00:24 40.9 °F 39.6 °F 30.20 in Calm     95% 0.00 in WeatherDisplay:10.37 W/m2
00:29 40.6 °F 39.3 °F 30.20 in Calm     95% 0.00 in WeatherDisplay:10.37 W/m2
00:34 40.4 °F 39.1 °F 30.20 in Calm     95% 0.00 in WeatherDisplay:10.37 W/m2
00:39 40.3 °F 39.0 °F 30.20 in Calm     95% 0.00 in WeatherDisplay:10.37 W/m2
00:44 40.1 °F 38.8 °F 30.20 in NNE 2.3 mph 0.5 mph 95% 0.00 in WeatherDisplay:10.37 W/m2
00:49 40.0 °F 38.7 °F 30.20 in Calm     95% 0.00 in WeatherDisplay:10.37 W/m2
00:54 40.0 °F 38.7 °F 30.20 in Calm     95% 0.00 in WeatherDisplay:10.37 W/m2
00:59 39.9 °F 38.6 °F 30.20 in Calm     95% 0.00 in WeatherDisplay:10.37 W/m2
01:04 39.7 °F 38.4 °F 30.20 in Calm     95% 0.00 in WeatherDisplay:10.37 W/m2
01:09 39.6 °F 38.3 °F 30.20 in Calm     95% 0.00 in WeatherDisplay:10.37 W/m2
01:14 39.5 °F 38.2 °F 30.20 in Calm     95% 0.00 in WeatherDisplay:10.37 W/m2
01:19 39.2 °F 37.9 °F 30.20 in Calm     95% 0.00 in WeatherDisplay:10.37 W/m2
01:24 39.0 °F 37.7 °F 30.20 in Calm     95% 0.00 in WeatherDisplay:10.37 W/m2
01:29 38.9 °F 37.6 °F 30.21 in Calm     95% 0.00 in WeatherDisplay:10.37 W/m2
01:34 38.8 °F 37.8 °F 30.21 in Calm     96% 0.00 in WeatherDisplay:10.37 W/m2
01:39 38.9 °F 37.9 °F 30.20 in Calm     96% 0.00 in WeatherDisplay:10.37 W/m2
01:44 39.1 °F 38.1 °F 30.20 in Calm     96% 0.00 in WeatherDisplay:10.37 W/m2
01:49 39.2 °F 38.2 °F 30.20 in Calm     96% 0.00 in WeatherDisplay:10.37 W/m2
01:54 39.4 °F 38.4 °F 30.20 in Calm     96% 0.00 in WeatherDisplay:10.37 W/m2
01:59 39.5 °F 38.5 °F 30.20 in Calm     96% 0.00 in WeatherDisplay:10.37 W/m2
02:04 39.6 °F 38.6 °F 30.20 in Calm     96% 0.00 in WeatherDisplay:10.37 W/m2
02:09 39.7 °F 38.7 °F 30.21 in Calm     96% 0.00 in WeatherDisplay:10.37 W/m2
02:14 39.8 °F 38.8 °F 30.20 in Calm     96% 0.00 in WeatherDisplay:10.37 W/m2
02:19 40.1 °F 39.1 °F 30.20 in Calm     96% 0.00 in WeatherDisplay:10.37 W/m2
02:24 40.4 °F 39.4 °F 30.20 in Calm     96% 0.00 in WeatherDisplay:10.37 W/m2
02:29 40.7 °F 39.9 °F 30.20 in Calm     97% 0.00 in WeatherDisplay:10.37 W/m2
02:34 40.9 °F 39.8 °F 30.20 in Calm     96% 0.00 in WeatherDisplay:10.37 W/m2
02:39 41.0 °F 39.9 °F 30.20 in Calm     96% 0.00 in WeatherDisplay:10.37 W/m2
02:44 41.1 °F 40.3 °F 30.20 in NNE 2.0 mph 1.3 mph 97% 0.00 in WeatherDisplay:10.37 W/m2
02:49 41.3 °F 40.5 °F 30.20 in NNE 1.2 mph 0.7 mph 97% 0.00 in WeatherDisplay:10.37 W/m2
02:54 41.3 °F 40.5 °F 30.20 in NNE 1.2 mph 0.2 mph 97% 0.00 in WeatherDisplay:10.37 W/m2
02:59 41.4 °F 40.3 °F 30.20 in Calm   0.1 mph 96% 0.00 in WeatherDisplay:10.37 W/m2
03:04 41.4 °F 40.3 °F 30.20 in NNE 2.3 mph 1.4 mph 96% 0.00 in WeatherDisplay:10.37 W/m2
03:09 41.5 °F 40.4 °F 30.21 in NNE 2.3 mph 0.5 mph 96% 0.00 in WeatherDisplay:10.37 W/m2
03:14 41.6 °F 40.5 °F 30.20 in NNE 2.3 mph 0.5 mph 96% 0.00 in WeatherDisplay:10.37 W/m2
03:19 41.7 °F 40.9 °F 30.20 in Calm   0.7 mph 97% 0.00 in WeatherDisplay:10.37 W/m2
03:24 41.7 °F 40.6 °F 30.21 in Calm   0.1 mph 96% 0.00 in WeatherDisplay:10.37 W/m2
03:29 41.7 °F 40.6 °F 30.21 in Calm     96% 0.00 in WeatherDisplay:10.37 W/m2
03:34 41.8 °F 40.7 °F 30.21 in Calm     96% 0.00 in WeatherDisplay:10.37 W/m2
03:39 41.8 °F 40.7 °F 30.21 in Calm   0.2 mph 96% 0.00 in WeatherDisplay:10.37 W/m2
03:44 41.8 °F 40.7 °F 30.21 in Calm     96% 0.00 in WeatherDisplay:10.37 W/m2
03:49 41.9 °F 40.8 °F 30.21 in Calm     96% 0.00 in WeatherDisplay:10.37 W/m2
03:54 42.0 °F 40.9 °F 30.21 in Calm     96% 0.00 in WeatherDisplay:10.37 W/m2
03:59 42.0 °F 40.9 °F 30.21 in Calm     96% 0.00 in WeatherDisplay:10.37 W/m2
04:04 42.1 °F 41.0 °F 30.22 in Calm     96% 0.00 in WeatherDisplay:10.37 W/m2
04:09 42.1 °F 41.0 °F 30.22 in Calm     96% 0.00 in WeatherDisplay:10.37 W/m2
04:14 42.1 °F 41.0 °F 30.22 in Calm     96% 0.00 in WeatherDisplay:10.37 W/m2
04:19 42.2 °F 41.1 °F 30.22 in Calm     96% 0.00 in WeatherDisplay:10.37 W/m2
04:24 42.2 °F 41.1 °F 30.22 in Calm     96% 0.00 in WeatherDisplay:10.37 W/m2
04:29 42.2 °F 41.1 °F 30.22 in Calm     96% 0.00 in WeatherDisplay:10.37 W/m2
04:34 42.2 °F 41.1 °F 30.22 in Calm     96% 0.00 in WeatherDisplay:10.37 W/m2
04:39 42.2 °F 41.1 °F 30.22 in Calm     96% 0.00 in WeatherDisplay:10.37 W/m2
04:44 42.3 °F 41.2 °F 30.22 in Calm     96% 0.00 in WeatherDisplay:10.37 W/m2
04:49 42.4 °F 41.3 °F 30.22 in Calm     96% 0.00 in WeatherDisplay:10.37 W/m2
04:54 42.4 °F 41.3 °F 30.22 in Calm     96% 0.00 in WeatherDisplay:10.37 W/m2
04:59 42.5 °F 41.4 °F 30.21 in Calm     96% 0.00 in WeatherDisplay:10.37 W/m2
05:04 42.6 °F 41.5 °F 30.21 in Calm     96% 0.00 in WeatherDisplay:10.37 W/m2
05:09 42.6 °F 41.5 °F 30.21 in Calm     96% 0.00 in WeatherDisplay:10.37 W/m2
05:14 42.7 °F 41.6 °F 30.21 in Calm     96% 0.00 in WeatherDisplay:10.37 W/m2
05:19 42.7 °F 41.6 °F 30.21 in Calm     96% 0.00 in WeatherDisplay:10.37 W/m2
05:24 42.7 °F 41.6 °F 30.21 in Calm     96% 0.00 in WeatherDisplay:10.37 W/m2
05:29 42.7 °F 41.6 °F 30.21 in Calm     96% 0.00 in WeatherDisplay:10.37 W/m2
05:34 42.8 °F 41.7 °F 30.21 in Calm     96% 0.00 in WeatherDisplay:10.37 W/m2
05:39 42.8 °F 41.7 °F 30.21 in Calm     96% 0.00 in WeatherDisplay:10.37 W/m2
05:44 42.9 °F 41.8 °F 30.22 in Calm     96% 0.00 in WeatherDisplay:10.37 W/m2
05:49 42.9 °F 41.8 °F 30.22 in Calm     96% 0.00 in WeatherDisplay:10.37 W/m2
05:54 42.9 °F 41.8 °F 30.22 in Calm     96% 0.00 in WeatherDisplay:10.37 W/m2
05:59 43.0 °F 41.9 °F 30.22 in Calm     96% 0.00 in WeatherDisplay:10.37 W/m2
06:04 43.1 °F 42.0 °F 30.22 in Calm     96% 0.00 in WeatherDisplay:10.37 W/m2
06:09 43.1 °F 42.0 °F 30.22 in Calm     96% 0.00 in WeatherDisplay:10.37 W/m2
06:14 43.1 °F 42.0 °F 30.22 in Calm     96% 0.00 in WeatherDisplay:10.37 W/m2
06:19 43.2 °F 41.9 °F 30.22 in Calm     95% 0.00 in WeatherDisplay:10.37 W/m2
06:24 43.2 °F 41.9 °F 30.23 in Calm     95% 0.00 in WeatherDisplay:10.37 W/m2
06:29 43.2 °F 41.9 °F 30.23 in Calm     95% 0.00 in WeatherDisplay:10.37 W/m2
06:34 43.3 °F 42.0 °F 30.23 in Calm     95% 0.00 in WeatherDisplay:10.37 W/m2
06:39 43.3 °F 42.0 °F 30.23 in Calm     95% 0.00 in WeatherDisplay:10.37 W/m2
06:44 43.4 °F 42.1 °F 30.23 in Calm     95% 0.00 in WeatherDisplay:10.37 W/m2
06:49 43.4 °F 42.1 °F 30.24 in Calm     95% 0.00 in WeatherDisplay:10.37 W/m2
06:54 43.4 °F 42.1 °F 30.24 in Calm     95% 0.00 in WeatherDisplay:10.37 W/m2
06:59 43.4 °F 42.1 °F 30.24 in Calm     95% 0.00 in WeatherDisplay:10.37 W/m2
07:04 43.4 °F 42.1 °F 30.24 in Calm     95% 0.00 in WeatherDisplay:10.37 W/m2
07:09 43.6 °F 42.3 °F 30.24 in Calm     95% 0.00 in WeatherDisplay:10.37 W/m2
07:14 43.6 °F 42.3 °F 30.25 in Calm     95% 0.00 in WeatherDisplay:10.37 W/m2
07:19 43.8 °F 42.5 °F 30.25 in Calm     95% 0.00 in WeatherDisplay:10.37 W/m2
07:24 43.9 °F 42.6 °F 30.25 in Calm     95% 0.00 in WeatherDisplay:10.37 W/m2
07:29 44.1 °F 42.8 °F 30.25 in Calm     95% 0.00 in WeatherDisplay:10.37 W/m2
07:34 44.3 °F 43.0 °F 30.25 in Calm     95% 0.00 in WeatherDisplay:10.37 W/m2
07:39 44.4 °F 43.1 °F 30.25 in Calm     95% 0.00 in WeatherDisplay:10.37 W/m2
07:44 44.6 °F 43.3 °F 30.25 in Calm     95% 0.00 in WeatherDisplay:10.37 W/m2
07:49 44.7 °F 43.4 °F 30.25 in Calm     95% 0.00 in WeatherDisplay:10.37 W/m2
07:54 45.0 °F 43.7 °F 30.25 in Calm     95% 0.00 in WeatherDisplay:10.37 W/m2
07:59 45.3 °F 44.0 °F 30.25 in Calm     95% 0.00 in WeatherDisplay:10.37 W/m2
08:04 45.6 °F 44.3 °F 30.25 in Calm     95% 0.00 in WeatherDisplay:10.37 W/m2
08:09 45.7 °F 44.1 °F 30.25 in NNE 2.0 mph 1.4 mph 94% 0.00 in WeatherDisplay:10.37 W/m2
08:14 46.0 °F 44.4 °F 30.25 in Calm     94% 0.00 in WeatherDisplay:10.37 W/m2
08:19 46.4 °F 44.8 °F 30.25 in Calm     94% 0.00 in WeatherDisplay:10.37 W/m2
08:24 46.8 °F 44.9 °F 30.25 in WNW 3.5 mph 2.4 mph 93% 0.00 in WeatherDisplay:10.37 W/m2
08:29 47.3 °F 45.4 °F 30.25 in WNW 1.2 mph   93% 0.00 in WeatherDisplay:10.37 W/m2
08:34 47.7 °F 45.5 °F 30.25 in Calm     92% 0.00 in WeatherDisplay:10.37 W/m2
08:39 47.9 °F 45.4 °F 30.25 in WNW 3.5 mph 2.4 mph 91% 0.00 in WeatherDisplay:10.37 W/m2
08:44 48.1 °F 45.3 °F 30.25 in WNW 2.3 mph 1.0 mph 90% 0.00 in WeatherDisplay:10.37 W/m2
08:49 48.3 °F 45.2 °F 30.25 in WNW 3.5 mph 1.8 mph 89% 0.00 in WeatherDisplay:10.37 W/m2
08:54 48.6 °F 45.5 °F 30.25 in Calm     89% 0.00 in WeatherDisplay:10.37 W/m2
08:59 49.0 °F 45.6 °F 30.26 in Calm     88% 0.00 in WeatherDisplay:10.37 W/m2
09:04 49.5 °F 45.8 °F 30.26 in WNW 3.5 mph 1.7 mph 87% 0.00 in WeatherDisplay:10.37 W/m2
09:09 50.0 °F 46.3 °F 30.26 in WNW 2.3 mph 1.2 mph 87% 0.00 in WeatherDisplay:10.37 W/m2
09:14 50.3 °F 46.0 °F 30.26 in WSW 2.3 mph 0.4 mph 85% 0.00 in WeatherDisplay:10.37 W/m2
09:19 50.5 °F 46.2 °F 30.26 in WSW 2.3 mph 0.5 mph 85% 0.00 in WeatherDisplay:10.37 W/m2
09:24 50.7 °F 46.0 °F 30.26 in WSW 3.5 mph 0.3 mph 84% 0.00 in WeatherDisplay:10.37 W/m2
09:29 50.9 °F 45.6 °F 30.26 in WSW 2.3 mph 0.9 mph 82% 0.00 in WeatherDisplay:10.37 W/m2
09:34 51.4 °F 46.4 °F 30.26 in WSW 1.2 mph 0.2 mph 83% 0.00 in WeatherDisplay:10.37 W/m2
09:39 51.9 °F 46.3 °F 30.26 in WSW 2.0 mph 1.3 mph 81% 0.00 in WeatherDisplay:10.37 W/m2
09:44 52.4 °F 45.7 °F 30.26 in WSW 3.0 mph 1.9 mph 78% 0.00 in WeatherDisplay:10.37 W/m2
09:49 52.9 °F 45.9 °F 30.26 in WSW 3.5 mph 1.6 mph 77% 0.00 in WeatherDisplay:10.37 W/m2
09:54 53.3 °F 45.9 °F 30.26 in WNW 3.5 mph 2.4 mph 76% 0.00 in WeatherDisplay:10.37 W/m2
09:59 53.6 °F 45.9 °F 30.26 in WNW 2.3 mph   75% 0.00 in WeatherDisplay:10.37 W/m2
10:04 54.1 °F 46.0 °F 30.26 in WNW 3.5 mph 3.7 mph 74% 0.00 in WeatherDisplay:10.37 W/m2
10:09 54.0 °F 45.5 °F 30.26 in West 3.5 mph 1.1 mph 73% 0.00 in WeatherDisplay:10.37 W/m2
10:14 53.9 °F 45.4 °F 30.26 in West 3.5 mph 1.5 mph 73% 0.00 in WeatherDisplay:10.37 W/m2
10:19 54.1 °F 45.6 °F 30.26 in West 2.3 mph 0.9 mph 73% 0.00 in WeatherDisplay:10.37 W/m2
west seneca weather
Compliments of Weather Underground - 2 mb